Time;durP1;ratioP1;P1;durP2;ratioP2;P2;SDS_P1;SDS_P2;PMS_P1;PMS_P2;Temp;Humidity;BMP_temperature;BMP_pressure;BME280_temperature;BME280_humidity;BME280_pressure;Samples;Min_cycle;Max_cycle;Signal;HPM_P1;HPM_P2
2022/09/02 00:01:39;;;;;;;18.80;13.13;;;;;;;20.71;68.22;95141.94;5047529;28;20039;-84
2022/09/02 00:04:06;;;;;;;17.08;12.85;;;;;;;20.74;67.95;95140.63;5047081;28;20025;-85
2022/09/02 00:06:32;;;;;;;13.68;12.32;;;;;;;20.81;67.45;95135.00;5048317;28;20025;-84
2022/09/02 00:08:58;;;;;;;16.92;12.25;;;;;;;20.78;67.95;95133.56;5047780;28;20090;-84
2022/09/02 00:11:26;;;;;;;16.23;11.50;;;;;;;20.82;67.78;95128.47;5048158;28;20033;-84
2022/09/02 00:13:52;;;;;;;14.80;12.75;;;;;;;20.80;67.64;95128.72;5048779;28;20021;-84
2022/09/02 00:16:17;;;;;;;15.38;12.02;;;;;;;20.84;67.29;95129.03;5047388;28;20032;-84
2022/09/02 00:18:43;;;;;;;17.52;12.55;;;;;;;20.87;67.10;95134.81;5047154;28;20048;-84
2022/09/02 00:21:10;;;;;;;17.52;12.27;;;;;;;20.93;67.05;95134.91;5047434;28;20456;-85
2022/09/02 00:23:37;;;;;;;16.85;13.07;;;;;;;20.83;67.00;95144.56;5049064;28;20033;-84
2022/09/02 00:26:03;;;;;;;18.48;13.23;;;;;;;20.84;67.28;95143.50;5048437;28;20585;-84
2022/09/02 00:28:28;;;;;;;17.65;14.00;;;;;;;20.82;67.13;95153.81;5049196;28;20091;-85
2022/09/02 00:30:54;;;;;;;14.55;13.02;;;;;;;20.73;67.40;95156.13;5048648;28;20036;-85
2022/09/02 00:33:19;;;;;;;16.92;12.98;;;;;;;20.56;67.94;95156.13;5048482;28;20040;-84
2022/09/02 00:35:45;;;;;;;16.17;12.18;;;;;;;20.58;67.61;95164.91;5048624;28;20407;-84
2022/09/02 00:38:10;;;;;;;15.90;13.25;;;;;;;20.54;67.92;95161.00;5046923;28;20032;-84
2022/09/02 00:40:36;;;;;;;18.52;12.70;;;;;;;20.40;68.29;95165.94;5047881;28;20025;-83
2022/09/02 00:43:04;;;;;;;14.65;12.13;;;;;;;20.47;68.09;95163.06;5046527;28;20064;-84
2022/09/02 00:45:31;;;;;;;14.75;12.13;;;;;;;20.56;68.03;95166.19;5047865;28;20515;-84
2022/09/02 00:47:56;;;;;;;16.25;11.43;;;;;;;20.60;67.65;95162.72;5047209;28;20036;-84
2022/09/02 00:50:23;;;;;;;14.05;11.95;;;;;;;20.63;67.33;95162.22;5047029;28;20024;-84
2022/09/02 00:52:52;;;;;;;14.13;11.77;;;;;;;20.65;67.50;95159.25;5047853;28;20151;-84
2022/09/02 00:55:23;;;;;;;15.23;11.43;;;;;;;20.68;67.19;95169.69;5029048;28;20057;-84
2022/09/02 00:57:51;;;;;;;17.13;11.70;;;;;;;20.70;67.24;95167.53;5047948;28;20021;-84
2022/09/02 01:00:22;;;;;;;14.93;11.50;;;;;;;20.72;67.04;95161.81;5045421;28;20717;-84
2022/09/02 01:02:54;;;;;;;13.20;11.80;;;;;;;20.73;67.34;95171.66;5047476;28;20029;-84
2022/09/02 01:05:20;;;;;;;16.00;12.15;;;;;;;20.82;67.23;95172.06;5045783;28;20430;-83
2022/09/02 01:07:46;;;;;;;20.00;12.18;;;;;;;20.79;67.29;95173.41;5046093;28;20483;-83
2022/09/02 01:10:17;;;;;;;16.58;12.13;;;;;;;20.77;67.55;95172.81;5047227;28;20621;-84
2022/09/02 01:12:42;;;;;;;13.38;11.27;;;;;;;20.75;67.43;95175.78;5046507;28;20319;-83
2022/09/02 01:15:09;;;;;;;16.38;11.25;;;;;;;20.74;67.44;95173.31;5046825;28;20033;-84
2022/09/02 01:17:34;;;;;;;13.75;10.07;;;;;;;20.75;67.48;95175.78;5046874;28;20029;-84
2022/09/02 01:20:12;;;;;;;12.90;10.07;;;;;;;20.68;67.68;95174.31;5048655;28;20029;-84
2022/09/02 01:22:38;;;;;;;12.70;9.98;;;;;;;20.58;68.23;95177.69;5047482;28;20071;-85
2022/09/02 01:25:06;;;;;;;10.88;9.02;;;;;;;20.54;68.17;95177.34;5048082;28;20112;-85
2022/09/02 01:27:32;;;;;;;11.10;8.88;;;;;;;20.48;68.22;95176.44;5048295;28;20028;-85
2022/09/02 01:29:58;;;;;;;13.35;8.13;;;;;;;20.58;67.67;95183.13;5048887;28;20469;-84
2022/09/02 01:32:25;;;;;;;9.93;7.60;;;;;;;20.49;66.81;95178.09;5052057;28;20112;-85
2022/09/02 01:34:50;;;;;;;8.68;7.05;;;;;;;20.41;66.62;95178.50;5051988;28;20021;-84
2022/09/02 01:37:16;;;;;;;8.90;7.05;;;;;;;20.38;66.67;95182.53;5052213;28;20029;-84
2022/09/02 01:39:42;;;;;;;8.88;7.07;;;;;;;20.35;67.15;95166.69;5052061;28;20104;-85
2022/09/02 01:42:07;;;;;;;8.32;7.03;;;;;;;20.40;67.32;95178.72;5051070;28;20049;-84
2022/09/02 01:44:36;;;;;;;8.13;6.97;;;;;;;20.29;67.89;95188.63;5051983;28;20068;-84
2022/09/02 01:47:02;;;;;;;8.85;6.43;;;;;;;20.16;68.54;95187.88;5049926;28;20025;-84
2022/09/02 01:49:27;;;;;;;7.78;6.97;;;;;;;20.09;69.06;95185.28;5051731;28;20068;-84
2022/09/02 01:51:53;;;;;;;7.90;6.82;;;;;;;20.00;69.45;95186.72;5051316;28;20036;-84
2022/09/02 01:54:19;;;;;;;7.80;6.85;;;;;;;20.07;69.37;95171.09;5051755;28;20074;-84
2022/09/02 01:56:44;;;;;;;9.77;6.60;;;;;;;20.07;69.92;95159.41;5050258;28;20021;-83
2022/09/02 01:59:16;;;;;;;8.55;6.68;;;;;;;20.17;70.21;95153.31;5050506;28;20356;-84
2022/09/02 02:01:42;;;;;;;9.65;6.68;;;;;;;20.15;70.06;95145.38;5050696;28;20028;-84
2022/09/02 02:04:08;;;;;;;7.25;6.53;;;;;;;20.03;70.02;95137.28;5049879;28;20360;-84
2022/09/02 02:06:34;;;;;;;10.48;6.93;;;;;;;19.99;70.23;95136.09;5050139;28;20446;-84
2022/09/02 02:08:59;;;;;;;9.85;6.88;;;;;;;19.91;70.69;95133.75;5050847;28;20464;-85
2022/09/02 02:11:25;;;;;;;8.50;7.07;;;;;;;19.79;70.92;95131.91;5049409;28;20025;-84
2022/09/02 02:13:50;;;;;;;9.73;6.53;;;;;;;19.86;71.15;95137.22;5049493;28;20467;-84
2022/09/02 02:16:15;;;;;;;7.82;7.03;;;;;;;19.77;71.39;95134.03;5050673;28;20499;-84
2022/09/02 02:18:41;;;;;;;8.10;6.78;;;;;;;19.64;71.72;95122.38;5049807;28;20040;-83
2022/09/02 02:21:07;;;;;;;10.55;6.55;;;;;;;19.47;72.21;95121.50;5050614;28;20020;-84
2022/09/02 02:23:32;;;;;;;13.73;6.80;;;;;;;19.57;72.38;95126.31;5050821;28;20040;-84
2022/09/02 02:25:57;;;;;;;9.35;6.93;;;;;;;19.45;72.72;95116.31;5050576;28;20039;-85
2022/09/02 02:28:23;;;;;;;9.52;6.95;;;;;;;19.34;73.10;95117.16;5050477;28;20509;-84
2022/09/02 02:30:48;;;;;;;10.00;7.03;;;;;;;19.12;73.76;95101.50;5050083;28;20108;-83
2022/09/02 02:33:14;;;;;;;8.65;6.72;;;;;;;18.86;74.68;95093.56;5050729;28;20047;-83
2022/09/02 02:35:40;;;;;;;8.07;6.85;;;;;;;18.77;75.62;95098.56;5049198;28;20078;-84
2022/09/02 02:38:05;;;;;;;8.55;7.00;;;;;;;18.62;76.59;95090.88;5051087;28;20032;-83
2022/09/02 02:40:31;;;;;;;9.05;7.63;;;;;;;18.72;75.89;95103.03;5049684;28;20032;-84
2022/09/02 02:42:56;;;;;;;10.38;7.63;;;;;;;18.81;76.02;95106.22;5050035;28;20057;-84
2022/09/02 02:45:22;;;;;;;10.55;7.65;;;;;;;18.89;76.06;95095.00;5049901;28;20041;-85
2022/09/02 02:47:48;;;;;;;10.35;7.35;;;;;;;18.82;76.23;95092.41;5048926;28;20057;-85
2022/09/02 02:50:15;;;;;;;10.07;7.05;;;;;;;18.77;76.36;95098.56;5049842;28;20039;-85
2022/09/02 02:52:40;;;;;;;8.88;7.45;;;;;;;18.75;76.23;95113.41;5049323;28;20028;-84
2022/09/02 02:55:06;;;;;;;12.40;8.32;;;;;;;18.99;75.64;95121.56;5049815;28;20025;-82
2022/09/02 02:57:33;;;;;;;8.35;7.50;;;;;;;19.18;75.49;95119.56;5049273;28;20025;-82
2022/09/02 03:00:03;;;;;;;10.68;7.18;;;;;;;19.31;74.66;95118.47;5050841;28;20017;-82
2022/09/02 03:02:32;;;;;;;8.93;7.53;;;;;;;19.39;74.25;95133.59;5050004;28;20446;-83
2022/09/02 03:04:58;;;;;;;9.38;7.78;;;;;;;19.50;73.72;95131.91;5049455;28;20033;-83
2022/09/02 03:07:23;;;;;;;10.45;7.68;;;;;;;19.42;73.79;95135.00;5049380;28;20029;-83
2022/09/02 03:09:49;;;;;;;9.13;6.78;;;;;;;19.50;72.69;95123.72;5047741;28;20029;-84
2022/09/02 03:12:15;;;;;;;8.02;7.13;;;;;;;19.41;72.81;95136.88;5049167;28;20028;-82
2022/09/02 03:14:41;;;;;;;8.52;7.10;;;;;;;19.43;72.89;95123.88;5048097;28;20021;-82
2022/09/02 03:17:06;;;;;;;11.35;7.07;;;;;;;19.47;73.47;95124.22;5048775;28;20103;-83
2022/09/02 03:19:32;;;;;;;8.60;7.13;;;;;;;19.56;72.98;95133.66;5047935;28;20036;-83
2022/09/02 03:21:58;;;;;;;11.95;7.38;;;;;;;19.64;72.59;95135.97;5047977;28;20032;-83
2022/09/02 03:24:23;;;;;;;10.98;7.15;;;;;;;19.68;72.43;95135.50;5048163;28;20451;-83
2022/09/02 03:26:49;;;;;;;7.95;6.85;;;;;;;19.74;72.29;95139.97;5047913;28;20028;-83
2022/09/02 03:29:14;;;;;;;8.70;7.50;;;;;;;19.77;71.83;95134.03;5048380;28;20447;-83
2022/09/02 03:31:39;;;;;;;9.23;7.63;;;;;;;19.83;72.02;95134.97;5047397;28;20877;-83
2022/09/02 03:34:06;;;;;;;10.20;7.55;;;;;;;19.86;71.31;95135.28;5048862;28;20083;-83
2022/09/02 03:36:34;;;;;;;7.95;6.57;;;;;;;19.88;71.84;95138.59;5047596;28;20029;-84
2022/09/02 03:39:00;;;;;;;9.57;7.45;;;;;;;19.88;72.06;95141.34;5048681;28;20116;-83
2022/09/02 03:41:25;;;;;;;9.43;7.57;;;;;;;19.91;71.75;95139.19;5047988;28;20503;-83
2022/09/02 03:43:51;;;;;;;8.70;7.18;;;;;;;19.92;71.59;95146.28;5047414;28;20499;-83
2022/09/02 03:46:17;;;;;;;8.93;7.03;;;;;;;19.98;71.35;95142.59;5048187;28;20080;-83
2022/09/02 03:48:43;;;;;;;9.32;7.18;;;;;;;20.02;71.64;95149.22;5045725;28;20032;-83
2022/09/02 03:51:09;;;;;;;12.80;7.97;;;;;;;20.04;71.56;95155.25;5049558;28;20052;-82
2022/09/02 03:53:34;;;;;;;10.65;8.02;;;;;;;20.01;71.62;95155.69;5049362;28;20100;-85
2022/09/02 03:56:07;;;;;;;10.48;7.15;;;;;;;20.11;71.40;95166.00;5048350;28;20488;-84
2022/09/02 03:58:32;;;;;;;;;;;;;;;20.07;71.43;95164.84;5046393;28;20063;-84
2022/09/02 04:00:58;;;;;;;7.95;7.15;;;;;;;20.04;72.04;95163.41;5046568;28;20387;-83
2022/09/02 04:03:23;;;;;;;8.73;7.18;;;;;;;20.10;71.56;95177.97;5047298;28;20021;-83
2022/09/02 04:05:49;;;;;;;9.45;7.80;;;;;;;20.10;71.78;95181.47;5046173;28;20033;-83
2022/09/02 04:08:15;;;;;;;12.57;8.73;;;;;;;20.14;71.66;95181.84;5047684;28;20033;-83
2022/09/02 04:10:41;;;;;;;9.90;7.78;;;;;;;20.17;71.66;95186.78;5046670;28;20032;-83
2022/09/02 04:13:06;;;;;;;8.73;7.82;;;;;;;20.13;71.73;95186.44;5054551;28;20024;-83
2022/09/02 04:15:32;;;;;;;11.88;7.97;;;;;;;20.15;71.18;95183.50;5047514;28;20025;-84
2022/09/02 04:17:58;;;;;;;10.38;7.80;;;;;;;20.16;70.89;95189.75;5046923;28;20033;-84
2022/09/02 04:20:24;;;;;;;8.75;7.20;;;;;;;20.15;70.83;95194.41;5046720;28;20028;-84
2022/09/02 04:22:49;;;;;;;8.45;7.15;;;;;;;20.17;70.38;95203.13;5046102;28;20029;-83
2022/09/02 04:25:15;;;;;;;8.57;6.97;;;;;;;20.18;70.51;95201.22;5046572;28;20024;-83
2022/09/02 04:27:40;;;;;;;7.82;6.97;;;;;;;20.22;70.75;95202.38;5046142;28;20025;-83
2022/09/02 04:30:07;;;;;;;9.98;7.07;;;;;;;20.17;70.94;95196.88;5046374;28;20025;-82
2022/09/02 04:32:32;;;;;;;10.63;6.85;;;;;;;20.22;70.63;95197.78;5046129;28;20037;-82
2022/09/02 04:34:58;;;;;;;9.60;8.20;;;;;;;20.20;70.43;95190.94;5046928;28;20075;-83
2022/09/02 04:37:23;;;;;;;11.00;7.15;;;;;;;20.23;70.40;95199.41;5046447;28;20530;-82
2022/09/02 04:39:49;;;;;;;9.13;7.13;;;;;;;20.15;71.13;95199.84;5046666;28;20028;-83
2022/09/02 04:42:14;;;;;;;9.32;7.00;;;;;;;20.21;71.34;95203.47;5045740;28;20056;-83
2022/09/02 04:44:40;;;;;;;14.00;7.75;;;;;;;20.23;71.35;95210.31;5046034;28;20032;-83
2022/09/02 04:47:05;;;;;;;11.82;7.68;;;;;;;20.23;71.24;95206.78;5046073;28;20040;-83
2022/09/02 04:49:32;;;;;;;8.23;7.32;;;;;;;20.20;71.06;95207.28;5045648;28;20068;-82
2022/09/02 04:51:58;;;;;;;10.07;7.80;;;;;;;20.18;71.25;95203.97;5046172;28;20036;-83
2022/09/02 04:54:24;;;;;;;8.90;7.72;;;;;;;20.25;70.91;95204.63;5046141;28;20051;-83
2022/09/02 04:56:50;;;;;;;11.60;8.15;;;;;;;20.27;71.17;95213.38;5046526;28;20095;-85
2022/09/02 04:59:15;;;;;;;9.23;7.63;;;;;;;20.29;71.24;95211.25;5045805;28;20029;-83
2022/09/02 05:01:41;;;;;;;10.88;8.27;;;;;;;20.24;71.55;95219.31;5046150;28;20029;-83
2022/09/02 05:04:08;;;;;;;12.45;8.07;;;;;;;20.20;71.80;95215.44;5045847;28;20069;-82
2022/09/02 05:06:34;;;;;;;10.07;8.57;;;;;;;20.19;71.82;95216.50;5046537;28;20470;-85
2022/09/02 05:09:02;;;;;;;11.35;8.40;;;;;;;20.18;71.61;95225.75;5046818;28;20177;-82
2022/09/02 05:11:28;;;;;;;8.65;7.70;;;;;;;20.26;71.65;95222.63;5045619;28;20104;-83
2022/09/02 05:13:55;;;;;;;11.05;7.93;;;;;;;20.24;71.88;95220.16;5046576;28;20021;-83
2022/09/02 05:16:22;;;;;;;10.52;7.70;;;;;;;20.25;71.46;95227.25;5045512;28;20116;-83
2022/09/02 05:18:48;;;;;;;8.82;7.30;;;;;;;20.26;71.31;95222.63;5046875;28;20495;-83
2022/09/02 05:21:14;;;;;;;10.60;7.90;;;;;;;20.28;70.62;95228.63;5046005;28;20116;-84
2022/09/02 05:23:40;;;;;;;8.20;7.38;;;;;;;20.28;71.45;95230.56;5045965;28;20032;-84
2022/09/02 05:26:05;;;;;;;10.43;7.93;;;;;;;20.29;71.86;95230.31;5046238;28;20450;-83
2022/09/02 05:28:31;;;;;;;8.93;7.60;;;;;;;20.33;71.90;95234.19;5045857;28;20085;-85
2022/09/02 05:31:02;;;;;;;8.43;7.60;;;;;;;20.35;72.12;95225.78;5047059;28;20083;-84
2022/09/02 05:33:27;;;;;;;10.70;7.75;;;;;;;20.41;71.59;95229.44;5046303;28;20443;-84
2022/09/02 05:35:53;;;;;;;8.63;7.63;;;;;;;20.38;71.33;95231.56;5045981;28;20487;-84
2022/09/02 05:38:19;;;;;;;11.27;7.35;;;;;;;20.43;71.05;95227.25;5045554;28;20029;-83
2022/09/02 05:40:44;;;;;;;9.10;7.75;;;;;;;20.44;71.23;95229.75;5046094;28;20029;-84
2022/09/02 05:43:09;;;;;;;11.38;7.60;;;;;;;20.34;71.60;95224.97;5045833;28;20128;-84
2022/09/02 05:45:36;;;;;;;10.27;8.00;;;;;;;20.38;71.49;95225.28;5045597;28;20046;-83
2022/09/02 05:49:04;;;;;;;10.25;7.30;;;;;;;20.42;70.88;95222.91;5045578;28;20095;-83
2022/09/02 05:50:47;;;;;;;11.70;7.68;;;;;;;20.44;70.98;95218.03;5045682;28;20124;-83
2022/09/02 05:53:13;;;;;;;9.52;7.70;;;;;;;20.52;70.69;95214.09;5045949;28;20025;-83
2022/09/02 05:55:38;;;;;;;9.45;7.57;;;;;;;20.47;71.11;95209.38;5045778;28;20028;-83
2022/09/02 05:58:04;;;;;;;12.95;8.70;;;;;;;20.48;71.26;95219.19;5045027;28;20049;-83
2022/09/02 06:00:29;;;;;;;10.27;7.70;;;;;;;20.50;71.15;95209.72;5045283;28;20033;-83
2022/09/02 06:02:54;;;;;;;12.05;8.63;;;;;;;20.58;71.18;95208.50;5043467;28;20029;-84
2022/09/02 06:05:20;;;;;;;10.75;8.07;;;;;;;20.62;70.70;95212.34;5045450;28;20025;-83
2022/09/02 06:07:46;;;;;;;10.45;8.65;;;;;;;20.62;70.58;95206.91;5045181;28;20029;-84
2022/09/02 06:10:11;;;;;;;11.20;8.50;;;;;;;20.66;70.87;95211.88;5046031;28;20496;-85
2022/09/02 06:12:37;;;;;;;9.10;8.05;;;;;;;20.71;70.72;95201.88;5045049;28;20021;-82
2022/09/02 06:15:03;;;;;;;13.02;9.13;;;;;;;20.78;69.98;95211.78;5045956;28;20017;-82
2022/09/02 06:17:29;;;;;;;15.55;8.45;;;;;;;20.82;69.64;95207.50;5048513;28;20519;-84
2022/09/02 06:19:54;;;;;;;8.88;7.90;;;;;;;20.72;70.44;95208.16;5049186;28;20037;-83
2022/09/02 06:22:20;;;;;;;11.48;8.43;;;;;;;20.71;70.53;95214.69;5049864;28;20028;-84
2022/09/02 06:24:45;;;;;;;12.93;8.18;;;;;;;20.72;69.71;95219.03;5048874;28;20497;-82
2022/09/02 06:27:10;;;;;;;10.50;8.07;;;;;;;20.79;69.73;95219.72;5049681;28;20384;-84
2022/09/02 06:29:36;;;;;;;13.52;7.97;;;;;;;20.84;69.45;95217.09;5048266;28;20017;-84
2022/09/02 06:32:02;;;;;;;10.95;7.72;;;;;;;20.81;69.80;95223.00;5049071;28;20029;-84
2022/09/02 06:34:27;;;;;;;12.10;8.55;;;;;;;20.77;69.74;95213.69;5048166;28;20028;-84
2022/09/02 06:36:53;;;;;;;21.67;8.93;;;;;;;20.81;69.28;95216.75;5048810;28;20039;-82
2022/09/02 06:39:20;;;;;;;13.85;8.75;;;;;;;20.74;69.37;95216.91;5047244;28;20036;-83
2022/09/02 06:41:46;;;;;;;11.95;8.00;;;;;;;20.73;69.47;95226.16;5047405;28;20515;-83
2022/09/02 06:44:12;;;;;;;17.75;9.43;;;;;;;20.82;69.90;95227.41;5049090;28;20029;-84
2022/09/02 06:46:42;;;;;;;14.57;9.00;;;;;;;20.83;69.26;95223.59;5048461;28;20178;-84
2022/09/02 06:49:08;;;;;;;11.98;8.05;;;;;;;20.89;69.62;95235.44;5049062;28;20466;-85
2022/09/02 06:51:41;;;;;;;13.55;8.73;;;;;;;20.86;69.48;95239.44;5047644;28;20025;-83
2022/09/02 06:54:09;;;;;;;12.68;8.63;;;;;;;20.90;70.27;95244.41;5048549;28;20065;-84
2022/09/02 06:56:35;;;;;;;17.88;8.20;;;;;;;20.92;69.50;95245.03;5047921;28;20113;-82
2022/09/02 06:59:00;;;;;;;14.68;8.02;;;;;;;20.94;69.13;95242.88;5048526;28;20051;-83
2022/09/02 07:01:28;;;;;;;14.13;8.30;;;;;;;20.97;68.99;95239.66;5048089;28;20078;-83
2022/09/02 07:06:47;;;;;;;15.73;8.55;;;;;;;21.12;68.38;95248.06;5048082;28;20497;-84
2022/09/02 07:09:16;;;;;;;14.02;8.50;;;;;;;21.03;68.41;95246.84;5047640;28;20498;-84
2022/09/02 07:11:42;;;;;;;12.20;7.70;;;;;;;21.02;68.38;95249.81;5047602;28;20021;-83
2022/09/02 07:14:07;;;;;;;11.30;7.63;;;;;;;21.01;68.67;95245.44;5047601;28;20488;-84
2022/09/02 07:16:36;;;;;;;14.18;8.38;;;;;;;21.08;67.94;95249.66;5047127;28;20483;-83
2022/09/02 07:19:02;;;;;;;10.15;7.93;;;;;;;21.06;67.94;95250.97;5048050;28;20140;-84
2022/09/02 07:21:28;;;;;;;10.18;7.88;;;;;;;21.08;68.17;95257.84;5047181;28;20448;-83
2022/09/02 07:23:54;;;;;;;9.98;7.65;;;;;;;21.14;68.23;95255.16;5047816;28;20053;-83
2022/09/02 07:26:20;;;;;;;9.98;7.40;;;;;;;21.17;67.61;95254.66;5046769;28;20021;-83
2022/09/02 07:28:46;;;;;;;10.50;8.02;;;;;;;21.25;66.66;95256.97;5045404;28;20029;-82
2022/09/02 07:31:12;;;;;;;13.10;8.45;;;;;;;21.13;67.42;95257.09;5047210;28;20464;-84
2022/09/02 07:33:37;;;;;;;10.43;8.18;;;;;;;21.11;66.48;95254.59;5047924;28;20017;-82
2022/09/02 07:36:04;;;;;;;13.60;7.63;;;;;;;21.02;67.96;95261.56;5047084;28;20384;-84
2022/09/02 07:38:30;;;;;;;10.82;7.57;;;;;;;21.01;68.06;95256.34;5046895;28;20028;-84
2022/09/02 07:40:56;;;;;;;16.92;7.47;;;;;;;21.11;68.00;95249.16;5047395;28;20028;-83
2022/09/02 07:43:21;;;;;;;15.75;7.88;;;;;;;21.20;67.56;95248.75;5046350;28;20037;-83
2022/09/02 07:45:49;;;;;;;14.77;8.05;;;;;;;21.14;67.73;95255.16;5047204;28;20029;-84
2022/09/02 07:48:15;;;;;;;12.40;7.88;;;;;;;21.10;67.49;95244.75;5047241;28;20025;-83
2022/09/02 07:50:41;;;;;;;16.92;8.02;;;;;;;21.26;66.45;95245.00;5047422;28;20025;-83
2022/09/02 07:53:06;;;;;;;18.05;8.30;;;;;;;21.25;66.27;95254.25;5046837;28;20089;-83
2022/09/02 07:55:33;;;;;;;14.95;7.38;;;;;;;21.31;67.08;95253.25;5046447;28;20048;-84
2022/09/02 07:57:59;;;;;;;7.30;5.88;;;;;;;21.48;65.58;95255.13;5046801;28;20025;-83
2022/09/02 08:00:26;;;;;;;7.50;6.22;;;;;;;21.49;65.59;95252.16;5046355;28;20297;-85
2022/09/02 08:02:51;;;;;;;7.22;6.03;;;;;;;21.51;64.35;95260.09;5046738;28;20479;-83
2022/09/02 08:05:17;;;;;;;6.93;5.03;;;;;;;21.48;64.78;95268.78;5046465;28;20079;-83
2022/09/02 08:07:43;;;;;;;7.53;5.93;;;;;;;21.66;65.26;95264.09;5046783;28;20557;-82
2022/09/02 08:10:09;;;;;;;9.73;5.70;;;;;;;21.66;65.50;95269.56;5046265;28;20075;-84
2022/09/02 08:12:36;;;;;;;9.13;6.45;;;;;;;21.60;65.06;95268.69;5046019;28;20116;-82
2022/09/02 08:15:04;;;;;;;8.13;5.75;;;;;;;21.65;64.70;95278.84;5046063;28;20025;-83
2022/09/02 08:17:29;;;;;;;6.95;6.05;;;;;;;21.64;65.07;95278.00;5044645;28;20035;-83
2022/09/02 08:19:55;;;;;;;7.90;6.30;;;;;;;21.67;64.71;95274.78;5046864;28;20024;-83
2022/09/02 08:22:21;;;;;;;10.02;6.00;;;;;;;21.78;64.48;95274.97;5046592;28;20021;-83
2022/09/02 08:24:46;;;;;;;6.47;5.78;;;;;;;21.81;64.64;95275.25;5047200;28;20377;-83
2022/09/02 08:27:12;;;;;;;10.45;6.47;;;;;;;21.83;64.32;95266.81;5046340;28;20032;-83
2022/09/02 08:29:37;;;;;;;6.50;5.78;;;;;;;21.85;64.38;95273.69;5046524;28;20025;-84
2022/09/02 08:32:03;;;;;;;7.18;5.97;;;;;;;21.89;63.85;95268.56;5046935;28;20029;-83
2022/09/02 08:34:28;;;;;;;10.02;6.10;;;;;;;21.98;64.06;95272.50;5046797;28;20098;-84
2022/09/02 08:36:54;;;;;;;8.57;6.03;;;;;;;21.93;63.76;95272.41;5047035;28;20052;-83
2022/09/02 08:39:19;;;;;;;6.82;5.60;;;;;;;21.95;63.77;95277.63;5045425;28;20052;-83
2022/09/02 08:41:54;;;;;;;8.80;5.45;;;;;;;21.96;63.22;95265.63;5048240;28;20025;-83
2022/09/02 08:44:21;;;;;;;6.90;5.85;;;;;;;21.96;62.68;95269.19;5046836;28;20029;-83
2022/09/02 08:46:47;;;;;;;7.90;5.55;;;;;;;22.07;62.14;95264.66;5045686;28;20064;-83
2022/09/02 08:49:21;;;;;;;9.98;5.63;;;;;;;22.13;61.20;95264.72;5046565;28;20045;-85
2022/09/02 08:51:50;;;;;;;7.30;5.60;;;;;;;22.00;61.77;95261.31;5029077;28;20542;-83
2022/09/02 08:54:34;;;;;;;6.60;5.28;;;;;;;22.02;62.77;95256.41;5045989;28;20044;-83
2022/09/02 08:56:59;;;;;;;6.38;5.38;;;;;;;22.03;63.19;95258.06;5047963;28;20027;-84
2022/09/02 08:59:26;;;;;;;8.57;6.05;;;;;;;22.13;62.68;95256.53;5047705;28;20124;-84
2022/09/02 09:02:13;;;;;;;7.85;6.20;;;;;;;22.27;62.66;95255.06;5046098;28;20083;-85
2022/09/02 09:05:16;;;;;;;7.50;5.55;;;;;;;22.25;61.66;95254.47;5045762;28;20017;-84
2022/09/02 09:08:03;;;;;;;8.65;5.90;;;;;;;22.03;62.76;95262.69;5046918;28;20068;-83
2022/09/02 09:10:48;;;;;;;6.78;5.45;;;;;;;21.94;62.79;95249.50;5044844;28;20211;-84
2022/09/02 09:13:29;;;;;;;8.43;5.43;;;;;;;21.93;62.08;95256.03;5045912;28;20072;-84
2022/09/02 09:16:19;;;;;;;8.10;5.13;;;;;;;21.88;63.09;95246.97;5047451;28;20029;-83
2022/09/02 09:19:09;;;;;;;7.50;5.50;;;;;;;21.94;63.35;95256.88;5045804;28;20064;-83
2022/09/02 09:21:35;;;;;;;8.10;5.72;;;;;;;22.05;62.08;95250.47;5044816;28;20079;-84
2022/09/02 09:24:01;;;;;;;10.77;6.45;;;;;;;22.04;62.54;95248.78;5046146;28;20795;-84
2022/09/02 09:26:27;;;;;;;8.10;5.68;;;;;;;22.08;63.02;95246.38;5044043;28;20041;-83
2022/09/02 09:28:55;;;;;;;6.20;5.18;;;;;;;22.16;63.43;95245.09;5028510;28;20025;-84
2022/09/02 09:31:21;;;;;;;7.63;5.65;;;;;;;22.25;62.64;95243.56;5044013;28;20017;-83
2022/09/02 09:33:54;;;;;;;8.07;5.57;;;;;;;22.34;63.54;95246.69;5046434;28;20032;-83
2022/09/02 09:36:43;;;;;;;6.13;5.45;;;;;;;22.33;62.95;95242.28;5046195;28;20052;-84
2022/09/02 09:39:26;;;;;;;6.72;5.57;;;;;;;22.56;62.57;95241.16;5044663;28;20041;-83
2022/09/02 09:41:56;;;;;;;8.35;5.88;;;;;;;22.52;62.15;95231.81;5044663;28;20072;-84
2022/09/02 09:44:37;;;;;;;8.55;5.47;;;;;;;22.37;60.85;95235.22;5045672;28;20037;-83
2022/09/02 09:47:08;;;;;;;6.72;5.75;;;;;;;22.34;60.53;95231.09;5046609;28;20420;-84
2022/09/02 09:49:33;;;;;;;8.80;6.22;;;;;;;22.32;61.27;95233.28;5045600;28;20068;-84
2022/09/02 09:51:59;;;;;;;6.63;5.45;;;;;;;22.34;60.75;95242.00;5049067;28;20075;-84
2022/09/02 09:54:25;;;;;;;9.98;5.90;;;;;;;22.42;60.61;95234.47;5050004;28;20025;-84
2022/09/02 09:56:51;;;;;;;10.00;6.03;;;;;;;22.52;60.98;95234.53;5049282;28;20505;-83
2022/09/02 09:59:37;;;;;;;7.47;6.25;;;;;;;22.57;60.73;95240.06;5048663;28;20056;-83
2022/09/02 10:02:03;;;;;;;7.40;6.60;;;;;;;22.71;59.17;95242.41;5048314;28;20037;-82
2022/09/02 10:04:30;;;;;;;6.93;6.07;;;;;;;22.67;58.66;95241.28;5049825;28;20028;-84
2022/09/02 10:06:55;;;;;;;8.75;6.63;;;;;;;22.60;59.50;95236.84;5048088;28;20029;-84
2022/09/02 10:09:33;;;;;;;7.20;6.30;;;;;;;22.61;60.55;95240.41;5047591;28;20025;-83
2022/09/02 10:12:06;;;;;;;7.55;6.18;;;;;;;22.70;59.71;95238.84;5049375;28;20033;-83
2022/09/02 10:14:42;;;;;;;9.50;7.22;;;;;;;22.73;59.86;95237.53;5048329;28;20021;-82
2022/09/02 10:17:10;;;;;;;11.35;6.35;;;;;;;22.68;60.69;95234.75;5055132;28;20056;-86
2022/09/02 10:19:51;;;;;;;9.35;6.93;;;;;;;22.62;60.71;95230.31;5053045;28;20091;-84
2022/09/02 10:22:38;;;;;;;15.40;7.68;;;;;;;22.66;61.19;95232.28;5049088;28;20044;-83
2022/09/02 10:25:42;;;;;;;12.55;6.60;;;;;;;22.82;58.54;95230.50;5048951;28;20045;-83
2022/09/02 10:28:15;;;;;;;9.20;6.70;;;;;;;22.72;59.22;95235.84;5046076;28;20033;-83
2022/09/02 10:30:48;;;;;;;10.13;6.88;;;;;;;22.74;59.20;95235.59;5044807;28;20037;-83
2022/09/02 10:33:29;;;;;;;9.60;6.47;;;;;;;22.74;59.77;95238.34;5047537;28;20101;-84
2022/09/02 10:36:02;;;;;;;12.38;6.93;;;;;;;22.82;59.82;95235.97;5048129;28;20416;-83
2022/09/02 10:38:36;;;;;;;9.27;6.82;;;;;;;22.82;58.32;95238.69;5047329;28;20154;-83
2022/09/02 10:41:13;;;;;;;8.55;6.78;;;;;;;22.92;57.87;95235.22;5047271;28;20484;-85
2022/09/02 10:43:54;;;;;;;17.00;7.40;;;;;;;22.87;58.56;95231.63;5048742;28;20057;-84
2022/09/02 10:46:21;;;;;;;11.13;7.60;;;;;;;22.65;58.65;95233.34;5050291;28;20025;-84
2022/09/02 10:49:05;;;;;;;12.75;7.15;;;;;;;22.69;59.66;95230.91;5048921;28;20036;-83
2022/09/02 10:51:49;;;;;;;12.73;7.50;;;;;;;22.72;60.32;95231.22;5047218;28;20029;-83
2022/09/02 10:54:45;;;;;;;16.02;7.20;;;;;;;22.80;61.34;95237.28;5048085;28;20469;-82
2022/09/02 10:57:19;;;;;;;16.85;7.50;;;;;;;22.83;61.58;95234.88;5047747;28;20452;-83
2022/09/02 10:59:56;;;;;;;14.98;7.90;;;;;;;22.82;60.70;95235.97;5030105;28;20403;-83
2022/09/02 11:02:21;;;;;;;10.52;7.20;;;;;;;22.82;60.59;95229.66;5030160;28;20072;-83
2022/09/02 11:04:47;;;;;;;10.40;7.07;;;;;;;22.84;60.14;95228.31;5047800;28;20480;-83
2022/09/02 11:07:16;;;;;;;13.27;7.30;;;;;;;22.89;60.63;95218.50;5047629;28;20213;-83
2022/09/02 11:09:55;;;;;;;16.13;8.43;;;;;;;23.00;59.96;95225.72;5046862;28;20067;-84
2022/09/02 11:12:35;;;;;;;11.93;7.43;;;;;;;22.91;58.95;95210.88;5048189;28;20041;-83
2022/09/02 11:15:25;;;;;;;10.57;7.32;;;;;;;22.82;59.08;95213.25;5030966;28;20036;-83
2022/09/02 11:18:20;;;;;;;13.18;8.32;;;;;;;22.91;59.64;95214.41;5047847;28;20033;-82
2022/09/02 11:20:56;;;;;;;15.27;8.13;;;;;;;23.04;59.30;95215.88;5046426;28;20037;-82
2022/09/02 11:23:35;;;;;;;12.18;6.78;;;;;;;23.33;59.20;95210.06;5046195;28;20025;-82
2022/09/02 11:26:10;;;;;;;15.63;7.40;;;;;;;23.41;58.84;95208.78;5046084;28;20056;-82
2022/09/02 11:28:53;;;;;;;12.65;7.53;;;;;;;23.61;59.88;95211.88;5046309;28;20029;-84
2022/09/02 11:31:28;;;;;;;12.23;7.70;;;;;;;23.51;58.83;95213.50;5046491;28;20660;-83
2022/09/02 11:33:57;;;;;;;13.13;7.38;;;;;;;23.62;58.83;95208.88;5045745;28;20508;-84
2022/09/02 11:36:24;;;;;;;12.98;7.50;;;;;;;23.83;56.93;95220.75;5029134;28;20070;-83
2022/09/02 11:39:04;;;;;;;7.32;6.57;;;;;;;24.00;57.60;95213.44;5046192;28;20028;-83